Time;durP1;ratioP1;P1;durP2;ratioP2;P2;SDS_P1;SDS_P2;PMS_P1;PMS_P2;Temp;Humidity;BMP_temperature;BMP_pressure;BME280_temperature;BME280_humidity;BME280_pressure;Samples;Min_cycle;Max_cycle;Signal;HPM_P1;HPM_P2
2022/09/08 02:46:07;;;;;;;3.92;1.02;;;18.30;99.90;;;;;;5929158;23;88463;31
2022/09/08 02:48:34;;;;;;;3.03;0.40;;;18.10;99.90;;;;;;4852625;29;87248;-84
2022/09/08 02:51:05;;;;;;;2.92;0.52;;;18.00;99.90;;;;;;4839644;29;87616;-82
2022/09/08 02:53:31;;;;;;;2.20;0.50;;;18.00;99.90;;;;;;4838283;29;88325;-80
2022/09/08 02:55:58;;;;;;;4.18;0.50;;;17.80;99.90;;;;;;4841511;29;86749;-78
2022/09/08 02:58:24;;;;;;;2.25;0.40;;;17.70;99.90;;;;;;4844568;29;87090;-80
2022/09/08 03:00:51;;;;;;;2.75;0.47;;;17.70;99.90;;;;;;4843152;29;87484;-78
2022/09/08 03:03:16;;;;;;;1.80;0.40;;;17.50;99.90;;;;;;4843486;29;86991;-80
2022/09/08 03:05:42;;;;;;;1.27;0.40;;;17.30;99.90;;;;;;4843106;29;86288;-77
2022/09/08 03:08:08;;;;;;;3.75;0.40;;;17.20;99.90;;;;;;4835576;29;85592;-78
2022/09/08 03:10:35;;;;;;;2.67;0.40;;;16.90;99.90;;;;;;4844866;29;86821;-78
2022/09/08 03:13:02;;;;;;;3.13;0.30;;;16.90;99.90;;;;;;4846364;29;87046;-80
2022/09/08 03:15:29;;;;;;;3.00;0.43;;;16.80;99.90;;;;;;4844080;29;87350;-77
2022/09/08 03:17:55;;;;;;;1.17;0.20;;;17.00;99.90;;;;;;4843185;29;87268;-77
2022/09/08 03:20:22;;;;;;;2.38;0.30;;;17.00;99.90;;;;;;4844383;29;87273;-78
2022/09/08 03:22:49;;;;;;;1.17;0.10;;;17.00;99.90;;;;;;4844120;29;86717;-78
2022/09/08 03:25:15;;;;;;;2.88;0.50;;;17.00;99.90;;;;;;4845667;29;86935;-80
2022/09/08 03:27:41;;;;;;;3.58;0.40;;;16.90;99.90;;;;;;4844819;29;86995;-79
2022/09/08 03:30:09;;;;;;;2.80;0.47;;;16.60;99.90;;;;;;4844088;29;87000;-78
2022/09/08 03:32:37;;;;;;;1.10;0.20;;;16.60;99.90;;;;;;4837687;29;87242;-81
2022/09/08 03:35:04;;;;;;;1.33;0.35;;;16.60;99.90;;;;;;4843039;29;87538;-78
2022/09/08 03:37:30;;;;;;;2.05;0.25;;;16.60;99.90;;;;;;4844832;29;86361;-78
2022/09/08 03:39:56;;;;;;;2.42;0.43;;;16.80;99.90;;;;;;4842163;29;88675;-79
2022/09/08 03:42:21;;;;;;;3.00;0.50;;;16.80;99.90;;;;;;4832355;29;87602;-80
2022/09/08 03:44:47;;;;;;;2.33;0.45;;;16.80;99.90;;;;;;4845825;29;86220;-82
2022/09/08 03:47:13;;;;;;;1.90;0.60;;;16.80;99.90;;;;;;4848395;29;86306;-79
2022/09/08 03:49:39;;;;;;;2.30;0.50;;;16.90;99.90;;;;;;4863820;29;87230;-78
2022/09/08 03:52:05;;;;;;;3.25;0.47;;;17.00;99.90;;;;;;4860385;28;88315;-78
2022/09/08 03:54:50;;;;;;;1.88;0.55;;;17.00;99.90;;;;;;4862643;29;86746;-80
2022/09/08 03:57:21;;;;;;;2.95;0.57;;;17.00;99.90;;;;;;4862014;29;86311;-79
2022/09/08 03:59:49;;;;;;;4.22;0.80;;;16.90;99.90;;;;;;4861802;28;87401;-79
2022/09/08 04:02:15;;;;;;;2.00;0.45;;;16.90;99.90;;;;;;4859090;29;86274;-80
2022/09/08 04:04:42;;;;;;;2.08;0.57;;;16.90;99.90;;;;;;4852555;28;87255;-78
2022/09/08 04:07:09;;;;;;;2.47;0.70;;;16.70;99.90;;;;;;4860108;29;86756;-78
2022/09/08 04:09:35;;;;;;;3.03;0.60;;;16.70;99.90;;;;;;4862405;29;87250;-79
2022/09/08 04:12:01;;;;;;;2.47;0.32;;;16.50;99.90;;;;;;4870372;28;86975;-79
2022/09/08 04:14:28;;;;;;;3.28;0.60;;;16.40;99.90;;;;;;4857938;29;87163;-78
2022/09/08 04:16:54;;;;;;;2.10;0.57;;;16.50;99.90;;;;;;4858340;28;86885;-79
2022/09/08 04:19:19;;;;;;;7.38;0.65;;;16.70;99.90;;;;;;4861806;29;87705;-81
2022/09/08 04:21:45;;;;;;;1.17;0.30;;;16.70;99.90;;;;;;4864166;29;86912;-77
2022/09/08 04:24:11;;;;;;;3.15;0.40;;;16.80;99.90;;;;;;4865103;29;86823;-78
2022/09/08 04:26:37;;;;;;;0.80;0.10;;;16.90;99.90;;;;;;4852729;29;87039;-81
2022/09/08 04:29:03;;;;;;;2.22;0.20;;;16.80;99.90;;;;;;4864332;28;87769;-80
2022/09/08 04:31:29;;;;;;;2.15;0.45;;;16.90;99.90;;;;;;4860454;28;87974;-79
2022/09/08 04:33:55;;;;;;;2.13;0.47;;;16.80;99.90;;;;;;4862455;28;87089;-78
2022/09/08 04:36:22;;;;;;;2.72;0.57;;;16.90;99.90;;;;;;4861827;29;86669;-77
2022/09/08 04:38:48;;;;;;;1.80;0.40;;;16.90;99.90;;;;;;4861183;29;87364;-77
2022/09/08 04:41:16;;;;;;;3.03;0.55;;;16.90;99.90;;;;;;4859378;28;86764;-79
2022/09/08 04:43:43;;;;;;;1.15;0.40;;;16.90;99.90;;;;;;4853022;29;86152;-77
2022/09/08 04:46:11;;;;;;;3.58;0.50;;;16.90;99.90;;;;;;4863012;28;85631;-78
2022/09/08 04:48:38;;;;;;;2.30;0.32;;;17.00;99.90;;;;;;4877977;28;89127;-77
2022/09/08 04:51:05;;;;;;;2.15;0.30;;;16.90;99.90;;;;;;4876330;28;87164;-76
2022/09/08 04:53:33;;;;;;;2.70;0.40;;;16.90;99.90;;;;;;4864187;28;87276;-77
2022/09/08 04:56:01;;;;;;;2.58;0.45;;;17.00;99.90;;;;;;4864412;28;86809;-76
2022/09/08 04:58:31;;;;;;;2.05;0.57;;;16.90;99.90;;;;;;4856175;29;87589;-76
2022/09/08 05:01:12;;;;;;;4.07;0.57;;;16.90;99.90;;;;;;4869769;28;88277;-75
2022/09/08 05:03:38;;;;;;;0.77;0.20;;;16.90;99.90;;;;;;4856148;29;86539;-76
2022/09/08 05:06:06;;;;;;;2.95;0.35;;;16.80;99.90;;;;;;4865169;29;86422;-77
2022/09/08 05:08:32;;;;;;;1.98;0.30;;;16.70;99.90;;;;;;4863850;28;86640;-78
2022/09/08 05:10:58;;;;;;;1.45;0.22;;;16.70;99.90;;;;;;4863301;28;86772;-78
2022/09/08 05:13:24;;;;;;;1.02;0.20;;;16.70;99.90;;;;;;4863041;28;86901;-76
2022/09/08 05:15:50;;;;;;;2.22;0.22;;;16.60;99.90;;;;;;4856972;29;86750;-76
2022/09/08 05:18:16;;;;;;;2.00;0.10;;;16.60;99.90;;;;;;4864111;28;88197;-78
2022/09/08 05:20:41;;;;;;;1.75;0.20;;;16.70;99.90;;;;;;4863326;29;87853;-78
2022/09/08 05:23:07;;;;;;;4.30;0.45;;;16.60;99.90;;;;;;4862054;28;86501;-77
2022/09/08 05:25:33;;;;;;;2.40;0.10;;;16.60;99.90;;;;;;4864276;28;87022;-77
2022/09/08 05:27:58;;;;;;;1.13;0.10;;;16.70;99.90;;;;;;4871148;28;87718;-77
2022/09/08 05:30:24;;;;;;;2.65;0.30;;;16.60;99.90;;;;;;4862884;28;86933;-79
2022/09/08 05:32:50;;;;;;;1.20;0.20;;;16.60;99.90;;;;;;4862291;28;87644;-78
2022/09/08 05:35:15;;;;;;;5.28;0.38;;;16.70;99.90;;;;;;4865996;28;86794;-84
2022/09/08 05:37:41;;;;;;;1.98;0.30;;;16.70;99.90;;;;;;4862381;28;87040;-80
2022/09/08 05:40:07;;;;;;;3.40;0.20;;;16.70;99.90;;;;;;4864936;28;86600;-81
2022/09/08 05:42:33;;;;;;;3.25;0.20;;;16.70;99.90;;;;;;4869553;28;87114;-80
2022/09/08 05:44:59;;;;;;;0.70;0.20;;;16.70;99.90;;;;;;4869940;28;86599;-79
2022/09/08 05:47:24;;;;;;;1.80;0.30;;;16.70;99.90;;;;;;4862093;28;88279;-78
2022/09/08 05:49:50;;;;;;;0.85;0.17;;;16.70;99.90;;;;;;4865230;28;87331;-80
2022/09/08 05:52:16;;;;;;;1.05;0.28;;;16.70;99.90;;;;;;4863971;28;86993;-81
2022/09/08 05:54:41;;;;;;;0.90;0.17;;;16.70;99.90;;;;;;4868365;28;86534;-80
2022/09/08 05:57:07;;;;;;;3.40;0.32;;;16.70;99.90;;;;;;4858172;28;88743;-78
2022/09/08 05:59:33;;;;;;;0.95;0.30;;;16.70;99.90;;;;;;4865720;28;89014;-82
2022/09/08 06:01:59;;;;;;;1.42;0.40;;;16.60;99.90;;;;;;4875787;28;86354;-88
2022/09/08 06:04:25;;;;;;;0.93;0.20;;;16.70;99.90;;;;;;4863702;29;86360;-84
2022/09/08 06:06:50;;;;;;;0.80;0.10;;;16.60;99.90;;;;;;4865257;28;88758;-83
2022/09/08 06:09:16;;;;;;;2.58;0.68;;;16.60;99.90;;;;;;4867446;28;89059;-81
2022/09/08 06:11:42;;;;;;;1.75;0.30;;;16.50;99.90;;;;;;4864328;28;86384;-82
2022/09/08 06:14:10;;;;;;;1.40;0.15;;;16.50;99.90;;;;;;4860255;28;86438;-82
2022/09/08 06:16:35;;;;;;;0.82;0.20;;;16.50;99.90;;;;;;4866705;28;87177;-82
2022/09/08 06:19:02;;;;;;;5.22;0.40;;;16.50;99.90;;;;;;4876882;28;86608;-81
2022/09/08 06:21:32;;;;;;;1.00;0.20;;;16.50;99.90;;;;;;4870710;28;86274;-81
2022/09/08 06:24:01;;;;;;;2.17;0.30;;;16.60;99.90;;;;;;4862491;28;85487;-80
2022/09/08 06:26:44;;;;;;;1.20;0.20;;;16.60;99.90;;;;;;4862139;28;87750;-80
2022/09/08 06:29:25;;;;;;;3.05;0.40;;;16.60;99.90;;;;;;4862831;28;86819;-81
2022/09/08 06:32:09;;;;;;;1.48;0.20;;;16.60;99.90;;;;;;4862082;28;87102;-84
2022/09/08 06:34:42;;;;;;;1.85;0.55;;;16.70;99.90;;;;;;4861179;28;87195;-80
2022/09/08 06:37:27;;;;;;;1.33;0.70;;;16.80;99.90;;;;;;4857400;28;87219;-82
2022/09/08 06:40:02;;;;;;;0.60;0.20;;;16.90;99.90;;;;;;4869715;28;86849;-82
2022/09/08 06:42:43;;;;;;;2.53;0.13;;;16.90;99.90;;;;;;4871525;28;87854;-80
2022/09/08 06:45:36;;;;;;;2.08;0.40;;;17.00;99.90;;;;;;4870864;28;86252;-81
2022/09/08 06:48:25;;;;;;;0.80;0.20;;;17.00;99.90;;;;;;4861572;28;87551;-83
2022/09/08 06:51:25;;;;;;;1.52;0.30;;;17.20;99.90;;;;;;4865361;28;87019;-83
2022/09/08 06:54:09;;;;;;;1.35;0.30;;;17.30;99.90;;;;;;4865712;28;86707;-83
2022/09/08 06:56:53;;;;;;;1.98;0.30;;;17.40;99.90;;;;;;4866681;28;86848;-82
2022/09/08 06:59:43;;;;;;;2.53;0.22;;;17.60;99.90;;;;;;4861900;28;90212;-82
2022/09/08 07:02:17;;;;;;;0.38;0.10;;;17.70;99.90;;;;;;4859256;28;87872;-83
2022/09/08 07:04:58;;;;;;;1.23;0.28;;;17.60;99.90;;;;;;4858453;29;86866;-83
2022/09/08 07:07:33;;;;;;;1.65;0.20;;;17.60;99.90;;;;;;4859711;29;86277;-83
2022/09/08 07:10:04;;;;;;;0.60;0.20;;;17.70;99.90;;;;;;4860698;28;88280;-81
2022/09/08 07:12:47;;;;;;;1.08;0.30;;;17.80;99.90;;;;;;4866503;28;87310;-82
2022/09/08 07:15:33;;;;;;;0.90;0.20;;;17.80;99.90;;;;;;4863304;29;86572;-81
2022/09/08 07:18:22;;;;;;;1.23;0.22;;;17.90;99.90;;;;;;4858394;29;86242;-81
2022/09/08 07:20:49;;;;;;;0.52;0.10;;;17.90;99.90;;;;;;4861288;28;86732;-81
2022/09/08 07:23:23;;;;;;;1.23;0.22;;;17.90;99.90;;;;;;4854945;28;87085;-82
2022/09/08 07:25:52;;;;;;;2.15;0.22;;;18.20;99.90;;;;;;4863467;29;87526;-81
2022/09/08 07:28:28;;;;;;;1.10;0.30;;;18.50;99.90;;;;;;4862095;29;86675;-82
2022/09/08 07:31:00;;;;;;;2.20;0.20;;;18.90;99.90;;;;;;4861532;28;86600;-82
2022/09/08 07:33:39;;;;;;;1.23;0.40;;;19.10;99.90;;;;;;4861801;28;86810;-82
2022/09/08 07:36:15;;;;;;;1.48;0.20;;;19.20;99.90;;;;;;4866770;28;86272;-82
2022/09/08 07:38:54;;;;;;;2.83;0.20;;;19.00;99.90;;;;;;4859328;28;88101;-82
2022/09/08 07:41:44;;;;;;;2.20;0.50;;;18.90;99.90;;;;;;4865264;28;88697;-81
2022/09/08 07:44:17;;;;;;;2.20;0.30;;;18.90;99.90;;;;;;4848115;28;87200;-80
2022/09/08 07:46:49;;;;;;;1.27;0.20;;;19.00;99.90;;;;;;4862258;28;87120;-83
2022/09/08 07:49:18;;;;;;;1.65;0.22;;;19.20;99.90;;;;;;4860496;28;87078;-81
2022/09/08 07:51:56;;;;;;;0.80;0.20;;;19.40;99.90;;;;;;4865697;28;88277;-80
2022/09/08 07:54:49;;;;;;;1.33;0.60;;;19.40;99.90;;;;;;4859483;28;87102;-81
2022/09/08 07:57:47;;;;;;;0.95;0.22;;;19.60;99.90;;;;;;4861190;28;86993;-81
2022/09/08 08:00:22;;;;;;;0.68;0.28;;;20.20;98.10;;;;;;4845748;28;86520;-81
2022/09/08 08:03:08;;;;;;;0.77;0.30;;;20.50;95.50;;;;;;4860784;28;87284;-82
2022/09/08 08:05:46;;;;;;;0.90;0.30;;;20.60;94.40;;;;;;4859692;28;87086;-80
2022/09/08 08:08:19;;;;;;;6.15;1.10;;;20.70;94.60;;;;;;4865321;28;86843;-82
2022/09/08 08:11:39;;;;;;;0.70;0.20;;;21.90;91.50;;;;;;4867471;28;85743;-81
2022/09/08 08:14:22;;;;;;;0.60;0.30;;;22.30;90.00;;;;;;4850915;28;87268;-85
2022/09/08 08:16:54;;;;;;;0.85;0.30;;;22.00;88.70;;;;;;4858392;28;87238;-83
2022/09/08 08:19:47;;;;;;;1.10;0.28;;;21.80;86.10;;;;;;4860634;28;88256;-82
2022/09/08 08:22:47;;;;;;;1.98;0.30;;;22.80;88.90;;;;;;4864377;28;86338;-80
2022/09/08 08:25:29;;;;;;;1.02;0.28;;;25.30;77.90;;;;;;4848349;28;87303;-81
2022/09/08 08:28:03;;;;;;;1.30;0.70;;;25.10;75.70;;;;;;4862938;28;86293;-80
2022/09/08 08:30:32;;;;;;;0.80;0.40;;;26.50;70.30;;;;;;4861933;28;86659;-83
2022/09/08 08:33:08;;;;;;;1.38;0.47;;;28.10;64.20;;;;;;4860047;28;86345;-80
2022/09/08 08:35:54;;;;;;;;;;;27.80;62.80;;;;;;4862669;28;87130;-81
2022/09/08 08:38:35;;;;;;;2.13;0.85;;;26.60;64.60;;;;;;4865080;28;86538;-80
2022/09/08 08:41:06;;;;;;;2.38;0.80;;;25.90;66.70;;;;;;4871916;28;86686;-86
2022/09/08 08:44:02;;;;;;;1.33;1.05;;;27.10;66.10;;;;;;4861879;28;86873;-82
2022/09/08 08:46:55;;;;;;;2.78;1.80;;;31.70;57.70;;;;;;4862832;28;87945;-81
2022/09/08 08:49:45;;;;;;;1.27;1.02;;;34.00;49.70;;;;;;4865297;28;88022;-83
2022/09/08 08:52:38;;;;;;;2.83;1.30;;;32.60;49.70;;;;;;4861078;28;86852;-80
2022/09/08 08:55:13;;;;;;;1.60;1.20;;;31.10;52.30;;;;;;4860983;28;87114;-78
2022/09/08 08:57:51;;;;;;;2.35;1.17;;;29.50;55.50;;;;;;4871806;28;87963;-78
2022/09/08 09:00:19;;;;;;;1.95;0.98;;;28.60;56.70;;;;;;4861995;28;86503;-78
2022/09/08 09:03:20;;;;;;;2.22;1.30;;;29.50;57.40;;;;;;4863732;28;86147;-79
2022/09/08 09:05:49;;;;;;;1.80;1.48;;;32.10;55.00;;;;;;4839225;28;85919;-80
2022/09/08 09:08:41;;;;;;;2.45;1.67;;;35.90;49.90;;;;;;4861566;28;88785;-79
2022/09/08 09:11:41;;;;;;;2.53;1.73;;;39.30;44.30;;;;;;4871041;28;86443;-79
2022/09/08 09:14:12;;;;;;;2.92;2.72;;;40.70;42.90;;;;;;4868932;28;88627;-80
2022/09/08 09:16:57;;;;;;;2.55;2.35;;;41.90;42.80;;;;;;4870805;28;87016;-80
2022/09/08 09:19:37;;;;;;;3.40;3.10;;;43.50;37.00;;;;;;4869489;28;87289;-81
2022/09/08 09:22:25;;;;;;;2.40;2.20;;;45.10;37.00;;;;;;4861698;28;87471;-84
2022/09/08 09:25:15;;;;;;;4.80;4.40;;;46.10;35.00;;;;;;4866264;28;86577;-82
2022/09/08 09:27:48;;;;;;;5.22;4.82;;;46.60;34.70;;;;;;4863051;28;86899;-82
2022/09/08 09:30:46;;;;;;;5.63;5.22;;;47.80;32.10;;;;;;4862484;28;87700;-82
2022/09/08 09:33:18;;;;;;;4.50;4.10;;;46.30;31.80;;;;;;4862591;28;87327;-81
2022/09/08 09:35:52;;;;;;;4.18;3.88;;;43.80;33.80;;;;;;4871273;28;86665;-81
2022/09/08 09:38:18;;;;;;;3.83;3.53;;;42.20;36.20;;;;;;4864513;28;86761;-83
2022/09/08 09:41:18;;;;;;;3.78;3.47;;;43.60;34.90;;;;;;4858456;28;88856;-82
2022/09/08 09:44:22;;;;;;;4.00;3.70;;;41.60;37.20;;;;;;4862330;28;89970;-82
2022/09/08 09:47:02;;;;;;;3.47;3.15;;;41.10;34.80;;;;;;4858794;28;87004;-82
2022/09/08 09:49:47;;;;;;;2.55;2.35;;;37.50;38.60;;;;;;4864305;28;86588;-81
2022/09/08 09:52:35;;;;;;;2.58;2.38;;;33.50;43.00;;;;;;4859162;28;87117;-81
2022/09/08 09:55:04;;;;;;;2.10;1.98;;;34.40;45.60;;;;;;4858978;28;87298;-81
2022/09/08 09:57:45;;;;;;;2.58;1.95;;;36.10;41.00;;;;;;4859422;28;86348;-81
2022/09/08 10:00:25;;;;;;;2.38;2.17;;;34.70;41.60;;;;;;4864817;28;85624;-82
2022/09/08 10:02:59;;;;;;;1.85;1.75;;;32.40;45.50;;;;;;4862965;28;87355;-82
2022/09/08 10:05:48;;;;;;;2.25;1.92;;;31.20;48.00;;;;;;4866079;28;88512;-81
2022/09/08 10:08:29;;;;;;;2.00;1.90;;;34.10;45.70;;;;;;4862351;28;87581;-81
2022/09/08 10:11:32;;;;;;;3.60;2.03;;;38.40;39.40;;;;;;4862404;28;86574;-82
2022/09/08 10:14:28;;;;;;;4.38;3.90;;;40.50;36.80;;;;;;4860531;28;87145;-81
2022/09/08 10:17:23;;;;;;;3.17;2.88;;;41.00;36.70;;;;;;4846672;28;88638;-81
2022/09/08 10:20:17;;;;;;;3.75;3.45;;;41.80;34.60;;;;;;4854992;28;87604;-82
2022/09/08 10:23:13;;;;;;;3.75;3.45;;;40.50;36.40;;;;;;4859453;28;86773;-83
2022/09/08 10:25:48;;;;;;;4.13;3.83;;;38.50;37.80;;;;;;4863551;28;87293;-81
2022/09/08 10:28:28;;;;;;;4.10;3.80;;;35.10;43.10;;;;;;4865681;28;86123;-83
2022/09/08 10:31:31;;;;;;;3.08;1.50;;;33.30;44.80;;;;;;4857150;28;86803;-84
2022/09/08 10:34:07;;;;;;;2.33;2.13;;;31.70;47.00;;;;;;4861284;28;86653;-80
2022/09/08 10:36:54;;;;;;;1.92;1.83;;;30.60;47.90;;;;;;4860254;28;87594;-80
2022/09/08 10:39:42;;;;;;;1.75;1.65;;;30.00;48.90;;;;;;4860905;28;87895;-79
2022/09/08 10:42:30;;;;;;;1.83;1.45;;;29.50;50.40;;;;;;4857297;28;86676;-81
2022/09/08 10:45:17;;;;;;;1.35;1.23;;;29.00;51.20;;;;;;4857507;28;86941;-80
2022/09/08 10:48:01;;;;;;;1.00;0.82;;;28.10;52.90;;;;;;4865121;28;87827;-82
2022/09/08 10:50:31;;;;;;;1.42;0.90;;;27.40;55.90;;;;;;4860500;28;86751;-83
2022/09/08 10:53:00;;;;;;;1.33;0.95;;;27.00;56.60;;;;;;4861858;28;87131;-81
2022/09/08 10:55:32;;;;;;;2.22;1.10;;;27.00;56.70;;;;;;4860160;28;85956;-84
2022/09/08 10:58:15;;;;;;;1.20;0.68;;;27.30;55.60;;;;;;4862606;28;87068;-83
2022/09/08 11:00:53;;;;;;;1.40;0.77;;;27.30;54.30;;;;;;4860771;28;87095;-84
2022/09/08 11:03:30;;;;;;;2.17;1.20;;;27.20;55.70;;;;;;4857712;28;88622;-84
2022/09/08 11:06:06;;;;;;;1.42;0.32;;;27.20;54.60;;;;;;4862621;28;86737;-86
2022/09/08 11:08:59;;;;;;;2.88;0.90;;;26.50;56.30;;;;;;4856584;28;86753;-79
2022/09/08 11:11:51;;;;;;;1.83;0.90;;;26.30;56.80;;;;;;4858960;28;87482;-80
2022/09/08 11:14:42;;;;;;;3.55;0.50;;;25.80;57.70;;;;;;4863126;28;86394;-83
2022/09/08 11:17:30;;;;;;;1.27;0.70;;;25.30;59.10;;;;;;4859297;28;86959;-83
2022/09/08 11:20:15;;;;;;;2.13;0.40;;;25.30;61.30;;;;;;4863446;28;87963;-82
2022/09/08 11:23:00;;;;;;;1.58;0.60;;;25.70;58.50;;;;;;4860418;28;88078;-80
2022/09/08 11:25:44;;;;;;;2.03;0.60;;;25.60;57.10;;;;;;4865698;28;86723;-82
2022/09/08 11:28:34;;;;;;;3.10;0.50;;;25.30;58.50;;;;;;4862362;28;86536;-82
2022/09/08 11:31:11;;;;;;;1.02;0.60;;;25.50;56.50;;;;;;4858572;28;88083;-83
2022/09/08 11:33:51;;;;;;;4.20;0.80;;;26.00;57.60;;;;;;4857112;29;88421;-83
2022/09/08 11:36:44;;;;;;;3.10;0.70;;;26.10;56.90;;;;;;4861053;28;86383;-84
2022/09/08 11:39:46;;;;;;;1.85;0.70;;;25.80;59.50;;;;;;4860159;28;86252;-82
2022/09/08 11:42:26;;;;;;;2.55;0.60;;;25.40;60.10;;;;;;4864856;28;86736;-83
2022/09/08 11:45:13;;;;;;;1.90;0.77;;;25.20;58.80;;;;;;4869473;28;87361;-80
2022/09/08 11:48:02;;;;;;;1.95;0.90;;;24.60;60.30;;;;;;4860505;28;86453;-82
2022/09/08 11:51:10;;;;;;;1.88;0.75;;;24.50;60.80;;;;;;4868026;28;88652;-88
2022/09/08 11:53:43;;;;;;;1.38;0.60;;;24.60;59.60;;;;;;4862082;29;88616;-82
2022/09/08 11:56:47;;;;;;;1.10;0.50;;;24.50;59.60;;;;;;4862145;29;86986;-83
2022/09/08 11:59:20;;;;;;;2.85;0.40;;;24.40;59.20;;;;;;4859616;28;87518;-81
2022/09/08 12:02:00;;;;;;;2.17;0.77;;;24.40;59.80;;;;;;4871960;28;86821;-82
2022/09/08 12:04:32;;;;;;;3.08;0.32;;;24.60;60.60;;;;;;4867049;28;87011;-81
2022/09/08 12:07:13;;;;;;;1.48;0.50;;;24.90;60.50;;;;;;4864985;29;88181;-82
2022/09/08 12:10:03;;;;;;;2.35;0.73;;;25.00;60.20;;;;;;4858780;28;87119;-82
2022/09/08 12:12:56;;;;;;;1.98;0.68;;;25.10;59.00;;;;;;4863244;29;86482;-81
2022/09/08 12:15:43;;;;;;;1.15;0.63;;;25.20;62.10;;;;;;4867848;28;89139;-82
2022/09/08 12:18:28;;;;;;;1.70;0.57;;;25.20;58.80;;;;;;4866807;28;87495;-81
2022/09/08 12:20:59;;;;;;;1.75;0.70;;;24.70;60.50;;;;;;4859559;28;87059;-81
2022/09/08 12:23:28;;;;;;;1.40;0.75;;;24.30;61.00;;;;;;4863017;29;86578;-82
2022/09/08 12:26:06;;;;;;;1.13;0.47;;;24.40;62.50;;;;;;4865526;28;88253;-83
2022/09/08 12:28:41;;;;;;;1.88;0.65;;;24.70;62.40;;;;;;4858814;28;87425;-84
2022/09/08 12:31:36;;;;;;;2.08;0.70;;;24.70;60.80;;;;;;4865684;28;86616;-85
2022/09/08 12:34:17;;;;;;;3.60;0.40;;;25.00;61.60;;;;;;4862108;29;86566;-86
2022/09/08 12:36:49;;;;;;;1.42;0.60;;;25.20;61.00;;;;;;4874113;28;86927;-85
2022/09/08 12:40:11;;;;;;;1.17;0.65;;;25.00;58.10;;;;;;4861331;28;87016;-85
2022/09/08 12:43:12;;;;;;;2.30;0.68;;;24.60;58.70;;;;;;4847760;29;86976;-83
2022/09/08 12:45:48;;;;;;;1.23;0.60;;;24.50;58.80;;;;;;4859053;28;86093;-83
2022/09/08 12:48:32;;;;;;;1.70;0.40;;;24.10;60.20;;;;;;4851053;29;87294;-84
2022/09/08 12:51:22;;;;;;;2.85;0.70;;;24.00;61.20;;;;;;4862991;28;87596;-83
2022/09/08 12:53:58;;;;;;;1.45;0.55;;;23.70;63.60;;;;;;4864883;29;87729;-83
2022/09/08 12:56:32;;;;;;;1.83;0.75;;;23.70;65.00;;;;;;4864499;28;86934;-84
2022/09/08 12:59:02;;;;;;;1.38;0.20;;;24.20;61.00;;;;;;4857572;29;87112;-83
2022/09/08 13:01:40;;;;;;;1.98;0.55;;;24.20;62.10;;;;;;4864337;28;89386;-83
2022/09/08 13:04:34;;;;;;;2.45;0.57;;;24.10;61.90;;;;;;4869328;28;86713;-84
2022/09/08 13:07:16;;;;;;;2.05;0.60;;;23.90;63.20;;;;;;4860317;28;86444;-82
2022/09/08 13:10:04;;;;;;;1.60;0.77;;;23.70;63.40;;;;;;4865029;28;86608;-84
2022/09/08 13:12:45;;;;;;;1.15;0.50;;;23.50;65.30;;;;;;4861938;28;87511;-84
2022/09/08 13:15:48;;;;;;;0.82;0.52;;;23.40;64.60;;;;;;4858413;28;86956;-83
2022/09/08 13:18:31;;;;;;;1.13;0.60;;;23.60;64.30;;;;;;4856805;28;86384;-83
2022/09/08 13:21:23;;;;;;;1.25;0.80;;;24.00;61.60;;;;;;4860478;28;88670;-84
2022/09/08 13:23:54;;;;;;;1.27;0.50;;;24.10;60.30;;;;;;4860356;28;88253;-84
2022/09/08 13:27:05;;;;;;;0.75;0.50;;;24.00;60.50;;;;;;4868326;28;87686;-83
2022/09/08 13:30:07;;;;;;;1.25;0.57;;;24.10;60.10;;;;;;4831146;29;86782;-82
2022/09/08 13:32:50;;;;;;;3.30;0.80;;;23.70;62.50;;;;;;4852919;28;86451;-84
2022/09/08 13:35:53;;;;;;;1.60;0.88;;;23.00;63.50;;;;;;4858612;28;86396;-84
2022/09/08 13:38:22;;;;;;;2.17;0.60;;;23.30;62.20;;;;;;4857987;29;86966;-85
2022/09/08 13:41:04;;;;;;;1.80;0.40;;;23.40;63.30;;;;;;4862567;29;85550;-84
2022/09/08 13:43:52;;;;;;;3.28;0.50;;;23.10;63.60;;;;;;4861702;29;87702;-84
2022/09/08 13:46:40;;;;;;;1.35;0.85;;;23.30;62.90;;;;;;4856234;29;87096;-85
2022/09/08 13:49:24;;;;;;;1.40;0.70;;;23.20;63.60;;;;;;4875446;28;87325;-82
2022/09/08 13:52:17;;;;;;;1.95;0.98;;;23.20;63.80;;;;;;4861856;29;86715;-82
2022/09/08 13:54:53;;;;;;;1.70;0.70;;;23.50;64.60;;;;;;4856075;29;87424;-85
2022/09/08 13:57:44;;;;;;;2.67;0.63;;;23.70;63.00;;;;;;4863982;28;86819;-85
2022/09/08 14:00:11;;;;;;;1.05;0.30;;;23.90;62.50;;;;;;4856427;29;86488;-85
2022/09/08 14:02:56;;;;;;;3.50;0.70;;;24.00;63.50;;;;;;4861608;29;86686;-84
2022/09/08 14:05:34;;;;;;;1.92;0.70;;;23.30;63.20;;;;;;4861410;29;87484;-83
2022/09/08 14:08:25;;;;;;;3.00;0.77;;;23.30;64.60;;;;;;4868507;28;86380;-83
2022/09/08 14:11:29;;;;;;;2.53;0.45;;;23.30;63.50;;;;;;4860870;28;86321;-78
2022/09/08 14:14:14;;;;;;;2.35;0.60;;;23.90;62.60;;;;;;4859726;28;86969;-78
2022/09/08 14:16:41;;;;;;;4.03;0.82;;;24.30;61.70;;;;;;4864501;28;88245;-78
2022/09/08 14:19:30;;;;;;;1.50;0.63;;;24.20;65.10;;;;;;4859797;28;87931;-78
2022/09/08 14:22:22;;;;;;;1.45;0.77;;;24.10;62.60;;;;;;4861850;28;86381;-78
2022/09/08 14:25:03;;;;;;;1.30;0.60;;;24.10;62.30;;;;;;4851371;29;87073;-78
2022/09/08 14:28:14;;;;;;;4.32;0.70;;;23.90;63.40;;;;;;4859194;29;87290;-78
2022/09/08 14:31:01;;;;;;;3.72;0.30;;;23.80;66.80;;;;;;4838048;29;86974;-78
2022/09/08 14:33:43;;;;;;;2.47;0.85;;;23.50;67.20;;;;;;4861627;28;86447;-78
2022/09/08 14:36:33;;;;;;;1.75;0.73;;;23.30;66.40;;;;;;4861378;29;85915;-78
2022/09/08 14:39:18;;;;;;;2.10;0.60;;;23.30;65.90;;;;;;4860871;28;88818;-78
2022/09/08 14:41:52;;;;;;;0.80;0.43;;;23.10;66.80;;;;;;4857267;28;87077;-78
2022/09/08 14:44:35;;;;;;;1.33;0.50;;;23.00;66.10;;;;;;4864333;28;87740;-78
2022/09/08 14:47:05;;;;;;;0.98;0.22;;;23.00;67.80;;;;;;4866229;28;87437;-78
2022/09/08 14:49:38;;;;;;;1.70;1.42;;;23.20;65.80;;;;;;4863662;28;87302;-78
2022/09/08 14:52:14;;;;;;;1.20;0.65;;;23.30;66.20;;;;;;4853863;29;88117;-78
2022/09/08 14:54:58;;;;;;;2.10;0.70;;;23.30;67.40;;;;;;4860055;29;87442;-78
2022/09/08 14:57:49;;;;;;;3.63;0.40;;;23.30;66.60;;;;;;4860193;28;86863;-78
2022/09/08 15:00:24;;;;;;;2.70;0.50;;;23.60;67.50;;;;;;4851370;28;87082;-78
2022/09/08 15:03:00;;;;;;;1.27;0.50;;;23.70;66.90;;;;;;4853052;28;87778;-78
2022/09/08 15:05:35;;;;;;;2.42;0.52;;;23.70;65.60;;;;;;4852163;28;86456;-77
2022/09/08 15:08:24;;;;;;;2.63;0.77;;;23.60;66.50;;;;;;4856787;29;86876;-77
2022/09/08 15:11:09;;;;;;;1.52;0.63;;;23.60;64.70;;;;;;4861725;28;87543;-77
2022/09/08 15:13:56;;;;;;;1.67;0.30;;;23.50;65.70;;;;;;4856398;28;88289;-78
2022/09/08 15:16:26;;;;;;;1.90;0.40;;;23.30;68.40;;;;;;4858743;29;86336;-77
2022/09/08 15:19:29;;;;;;;2.55;0.70;;;23.10;66.40;;;;;;4858798;28;86716;-78
2022/09/08 15:21:56;;;;;;;1.67;0.50;;;23.20;66.50;;;;;;4854043;29;87232;-77
2022/09/08 15:24:31;;;;;;;2.30;0.95;;;23.10;66.20;;;;;;4856934;29;86940;-78
2022/09/08 15:27:17;;;;;;;1.88;0.65;;;22.90;65.20;;;;;;4851411;29;86433;-83
2022/09/08 15:30:03;;;;;;;1.30;0.55;;;23.00;63.80;;;;;;4856549;28;86246;-81
2022/09/08 15:32:46;;;;;;;1.88;0.50;;;22.90;63.90;;;;;;4865112;28;87677;-80
2022/09/08 15:35:43;;;;;;;0.82;0.30;;;22.70;64.20;;;;;;4855870;28;86498;-80
2022/09/08 15:38:20;;;;;;;1.35;0.40;;;22.60;62.60;;;;;;4858613;28;87765;-80
2022/09/08 15:41:17;;;;;;;3.28;0.30;;;22.60;63.20;;;;;;4854570;28;86390;-81
2022/09/08 15:43:52;;;;;;;2.13;0.40;;;22.60;63.20;;;;;;4856939;28;88459;-81
2022/09/08 15:46:35;;;;;;;2.13;0.70;;;22.60;60.80;;;;;;4856824;28;86839;-81
2022/09/08 15:49:19;;;;;;;2.15;0.60;;;22.50;61.20;;;;;;4849864;28;87466;-80
2022/09/08 15:52:09;;;;;;;2.95;0.40;;;22.30;63.00;;;;;;4855716;28;87035;-79
2022/09/08 15:54:41;;;;;;;1.23;0.50;;;22.40;61.70;;;;;;4856552;28;87152;-80
2022/09/08 15:57:37;;;;;;;1.17;0.52;;;22.60;61.70;;;;;;4858980;28;87052;-80
2022/09/08 16:00:15;;;;;;;2.60;0.40;;;22.60;61.40;;;;;;4861123;28;86287;-80
2022/09/08 16:02:58;;;;;;;3.05;0.47;;;22.50;61.40;;;;;;4854653;28;88468;-84
2022/09/08 16:05:50;;;;;;;1.50;0.30;;;22.40;63.00;;;;;;4856663;28;87868;-83
2022/09/08 16:08:37;;;;;;;1.27;0.45;;;22.40;63.10;;;;;;4850659;28;87152;-79
2022/09/08 16:11:14;;;;;;;1.13;0.50;;;22.20;63.60;;;;;;4856206;28;86856;-81
2022/09/08 16:13:49;;;;;;;1.83;0.70;;;22.10;64.20;;;;;;4857199;28;87592;-83
2022/09/08 16:16:38;;;;;;;1.30;0.60;;;22.10;63.60;;;;;;4855095;28;87379;-81
2022/09/08 16:19:07;;;;;;;;;;;22.20;62.50;;;;;;4857463;28;87543;-80
2022/09/08 16:21:37;;;;;;;2.15;0.40;;;22.30;62.70;;;;;;4861407;28;86326;-81
2022/09/08 16:24:28;;;;;;;1.90;0.40;;;22.20;64.50;;;;;;4860676;29;85882;-81
2022/09/08 16:27:23;;;;;;;1.60;0.28;;;22.10;65.10;;;;;;4861021;28;87200;-80
2022/09/08 16:29:58;;;;;;;3.28;0.30;;;22.10;66.00;;;;;;4857408;28;87114;-81
2022/09/08 16:32:34;;;;;;;1.25;0.50;;;22.00;66.60;;;;;;4859130;28;87956;-81